NEODyS-2

Near Earth Objects - Dynamic Site
NEODyS ∴ Observatories ∴ Site 691 ∴ Obs & residuals
Contact »
691  ▹ 
OBSERVATIONS AND RESIDUALS

691-Steward Observatory, Kitt Peak-Spacewatch

Detections | Residuals | Detections & Residuals

[1-200] [201-400] [401-600] [601-800] [801-1000] [1001-1200] [1201-1400] [1401-1600] [1601-1800] [1801-2000] [2001-2200] [2201-2400] [2401-2600] [2601-2800] [2801-3000] [3001-3200] [3201-3400] [3401-3600] [3601-3800] [3801-4000] [4001-4200] [4201-4400] [4401-4600] [4601-4800] [4801-5000] [5001-5200] [5201-5400] [5401-5600] [5601-5800] [5801-6000] [6001-6200] [6201-6400] [6401-6600] [6601-6800] [6801-7000] [7001-7200] [7201-7400] [7401-7600] [7601-7800] [7801-8000] [8001-8200] [8201-8400] [8401-8600] [8601-8800] [8801-9000] [9001-9200] [9201-9400] [9401-9600] [9601-9800] [9801-10000] [10001-10200] [10201-10400] [10401-10600] [10601-10800] [10801-11000] [11001-11200] [11201-11400] [11401-11600] [11601-11800] [11801-12000] [12001-12200] [12201-12400] [12401-12600] [12601-12800] [12801-13000] [13001-13200] [13201-13400] [13401-13600] [13601-13800] [13801-14000] [14001-14200] [14201-14400] [14401-14600] [14601-14800] [14801-15000] [15001-15200] [15201-15400] [15401-15600] [15601-15800] [15801-16000] [16001-16200] [16201-16400] [16401-16600] [16601-16800] [16801-17000] [17001-17200] [17201-17400] [17401-17600] [17601-17800] [17801-18000] [18001-18200] [18201-18400] [18401-18600] [18601-18800] [18801-19000] [19001-19200] [19201-19400] [19401-19600] [19601-19800] [19801-20000] [20001-20200] [20201-20400] [20401-20600] [20601-20800] [20801-21000] [21001-21200] [21201-21400] [21401-21600] [21601-21800] [21801-22000] [22001-22200] [22201-22400] [22401-22600] [22601-22800] [22801-23000] [23001-23200] [23201-23400] [23401-23600] [23601-23800] [23801-24000] [24001-24200] [24201-24400] [24401-24600] [24601-24800] [24801-25000] [25001-25200] [25201-25400] [25401-25600] [25601-25800] [25801-26000] [26001-26200] [26201-26400] [26401-26600] [26601-26800] [26801-27000] [27001-27200] [27201-27400] [27401-27600] [27601-27800] [27801-28000] [28001-28200] [28201-28400] [28401-28600] [28601-28800] [28801-29000] [29001-29200] [29201-29400] [29401-29600] [29601-29800] [29801-30000] [30001-30200] [30201-30400] [30401-30600] [30601-30800] [30801-31000] [31001-31200] [31201-31400] [31401-31600] [31601-31800] [31801-32000] [32001-32200] [32201-32400] [32401-32600] [32601-32800] [32801-33000] [33001-33200] [33201-33400] [33401-33600] [33601-33800] [33801-34000] [34001-34200] [34201-34400] [34401-34600] [34601-34800] [34801-35000] [35001-35200] [35201-35400] [35401-35600] [35601-35800] [35801-36000] [36001-36200] [36201-36400] [36401-36600] [36601-36800] [36801-37000] [37001-37200] [37201-37400] [37401-37600] [37601-37800] [37801-38000] [38001-38200] [38201-38400] [38401-38600] [38601-38800] [38801-39000] [39001-39200] [39201-39400] [39401-39600] [39601-39800] [39801-40000] [40001-40200] [40201-40400] [40401-40600] [40601-40800] [40801-41000] [41001-41200] [41201-41400] [41401-41600] [41601-41800] [41801-42000] [42001-42200] [42201-42400] [42401-42600] [42601-42800] [42801-43000] [43001-43200] [43201-43400] [43401-43600] [43601-43800] [43801-44000] [44001-44200] [44201-44400] [44401-44600] [44601-44800] [44801-45000] [45001-45200] [45201-45400] [45401-45600] [45601-45800] [45801-46000] [46001-46200] [46201-46400] [46401-46600] [46601-46800] [46801-47000] [47001-47200] [47201-47400] [47401-47600] [47601-47800] [47801-48000] [48001-48200] [48201-48400] [48401-48600] [48601-48800] [48801-49000] [49001-49200] [49201-49400] [49401-49600] [49601-49800] [49801-50000] [50001-50200] [50201-50388]

Designation T Tech N Date Right Ascension Declination Apparent Magnitude Star Catalog Site code χ Used A Used M
yr-mo-day precision hr:min:sec precision rms F bias residual deg min sec precision rms F bias residual mag/col rms residual
1998KG3 O C 2013-05-14.17889 1.000E-05 13:30:19.080 1.500E-01 0.500 F 0.230 -0.341 +01° 34' 52.50" 1.000E-01 0.500 F 0.090 -0.041 o 691 0.69 Yes No
2013HN11 O C 2013-05-14.18150 1.000E-05 13:28:24.590 1.500E-01 0.500 F 0.298 -0.016 -01° 16' 20.50" 1.000E-01 0.500 F 0.076 -0.737 o 691 1.54 Yes No
1998KG3 O C 2013-05-16.15685 1.000E-05 13:30:59.800 1.500E-01 0.500 F 0.230 -0.220 +01° 55' 37.20" 1.000E-01 0.500 F 0.090 -0.177 20.4 V 0.70 -0.15 o 691 0.57 Yes Yes
1998KG3 O C 2013-05-16.17009 1.000E-05 13:30:59.920 1.500E-01 0.500 F 0.230 -0.458 +01° 55' 44.80" 1.000E-01 0.500 F 0.090 -0.167 20.1 V 0.70 -0.45 o 691 0.98 Yes Yes
1998KG3 O C 2013-05-16.18334 1.000E-05 13:31:00.070 1.500E-01 0.500 F 0.230 -0.180 +01° 55' 52.70" 1.000E-01 0.500 F 0.090 0.155 20.5 V 0.70 -0.05 o 691 0.48 Yes Yes
2004BW58 O C 2013-05-16.36955 1.000E-05 16:16:30.480 1.500E-01 0.500 F 0.139 -0.210 +08° 36' 27.20" 1.000E-01 0.500 F 0.130 -0.112 20.8 V 0.70 -0.27 o 691 0.48 Yes Yes
2004BW58 O C 2013-05-16.38726 1.000E-05 16:16:28.660 1.500E-01 0.500 F 0.139 -0.452 +08° 36' 31.10" 1.000E-01 0.500 F 0.130 0.383 21.3 V 0.70 0.23 o 691 1.19 Yes Yes
2004BW58 O C 2013-05-16.40497 1.000E-05 16:16:26.870 1.500E-01 0.500 F 0.139 -0.274 +08° 36' 34.30" 1.000E-01 0.500 F 0.130 0.200 21.6 V 0.70 0.53 o 691 0.68 Yes Yes
Verenia O C 2013-05-19.21183 1.000E-05 15:56:27.080 1.500E-01 0.500 F 0.185 -0.506 -04° 51' 59.40" 1.000E-01 0.500 F 0.162 -0.122 19.7 V 0.70 0.16 o 691 1.04 Yes Yes
Verenia O C 2013-05-19.22948 1.000E-05 15:56:25.650 1.500E-01 0.500 F 0.185 -1.498 -04° 51' 50.90" 1.000E-01 0.500 F 0.162 0.367 19.8 V 0.70 0.27 o 691 3.09 Yes Yes
Verenia O C 2013-05-19.24713 1.000E-05 15:56:24.370 1.500E-01 0.500 F 0.185 -0.208 -04° 51' 43.10" 1.000E-01 0.500 F 0.162 0.153 19.8 V 0.70 0.27 o 691 0.52 Yes Yes
2013JQ22 O C 2013-06-04.24790 1.000E-05 16:46:58.990 1.500E-01 0.500 F 0.130 -0.319 +21° 44' 16.00" 1.000E-01 0.500 F 0.160 -0.221 21.0 V 0.70 1.01 o 691 0.81 Yes Yes
2013JQ22 O C 2013-06-04.26569 1.000E-05 16:46:57.170 1.500E-01 0.500 F 0.130 -0.399 +21° 43' 44.30" 1.000E-01 0.500 F 0.160 -0.219 19.9 V 0.70 -0.09 o 691 0.94 Yes Yes
2013JQ22 O C 2013-06-04.28349 1.000E-05 16:46:55.410 1.500E-01 0.500 F 0.130 0.413 +21° 43' 13.20" 1.000E-01 0.500 F 0.160 0.486 19.8 V 0.70 -0.19 o 691 1.32 Yes Yes
2013LK7 O C 2013-06-06.18056 1.000E-05 16:35:28.840 1.500E-01 0.500 F -0.055 -0.405 +13° 38' 43.20" 1.000E-01 0.500 F 0.203 -0.347 19.7 V 0.70 0.33 o 691 1.08 Yes Yes
2013LK7 O C 2013-06-06.19826 1.000E-05 16:35:24.700 1.500E-01 0.500 F -0.055 -0.202 +13° 37' 17.10" 1.000E-01 0.500 F 0.203 -0.135 19.9 V 0.70 0.53 o 691 0.49 Yes Yes
2013LK7 O C 2013-06-06.21597 1.000E-05 16:35:20.470 1.500E-01 0.500 F -0.055 -1.119 +13° 35' 50.20" 1.000E-01 0.500 F 0.203 -0.616 19.8 V 0.70 0.43 o 691 2.59 Yes Yes
2001LO7 O C 2013-06-06.23667 1.000E-05 15:34:06.610 1.500E-01 0.500 F -0.055 -0.411 -16° 34' 36.50" 1.000E-01 0.500 F 0.054 -0.410 20.2 V 0.70 0.16 o 691 1.16 Yes Yes
2001LO7 O C 2013-06-06.25438 1.000E-05 15:34:05.520 1.500E-01 0.500 F -0.055 -0.712 -16° 34' 30.90" 1.000E-01 0.500 F 0.054 -0.059 20.4 V 0.70 0.36 o 691 1.43 Yes Yes
2001LO7 O C 2013-06-06.27209 1.000E-05 15:34:04.480 1.500E-01 0.500 F -0.055 -0.299 -16° 34' 25.40" 1.000E-01 0.500 F 0.054 0.183 20.1 V 0.70 0.06 o 691 0.70 Yes Yes
2008KZ5 O C 2013-06-06.30023 1.000E-05 16:38:48.770 1.500E-01 0.500 F 0.230 -0.498 +05° 26' 04.20" 1.000E-01 0.500 F 0.167 0.307 19.6 V 0.70 -0.33 o 691 1.17 Yes Yes
2008KZ5 O C 2013-06-06.31787 1.000E-05 16:38:47.200 1.500E-01 0.500 F 0.230 -0.464 +05° 26' 16.70" 1.000E-01 0.500 F 0.167 0.153 19.8 V 0.70 -0.13 o 691 0.98 Yes Yes
2008KZ5 O C 2013-06-06.33552 1.000E-05 16:38:45.640 1.500E-01 0.500 F 0.230 -0.287 +05° 26' 29.20" 1.000E-01 0.500 F 0.167 0.021 19.7 V 0.70 -0.23 o 691 0.58 Yes Yes
2013LE7 O C 2013-06-06.34561 1.000E-05 17:05:48.930 1.500E-01 0.500 F 0.006 -0.469 +17° 29' 22.50" 1.000E-01 0.500 F 0.237 -0.014 21.3 V 0.70 -0.55 o 691 0.95 Yes Yes
2013LE7 O C 2013-06-06.36332 1.000E-05 17:05:52.370 1.500E-01 0.500 F 0.006 -0.325 +17° 29' 19.10" 1.000E-01 0.500 F 0.237 -0.103 21.2 V 0.70 -0.65 o 691 0.69 Yes Yes
2013LE7 O C 2013-06-06.38103 1.000E-05 17:05:55.800 1.500E-01 0.500 F 0.006 -1.046 +17° 29' 15.00" 1.000E-01 0.500 F 0.237 -0.149 21.7 V 0.70 -0.15 o 691 2.15 Yes Yes
2009BL2 O C 2013-06-07.36217 1.000E-05 17:21:09.890 1.500E-01 0.500 F 0.043 -0.219 +18° 28' 54.50" 1.000E-01 0.500 F 0.220 -0.121 18.0 V 0.70 0.26 o 691 0.49 Yes Yes
2009BL2 O C 2013-06-07.38013 1.000E-05 17:21:10.910 1.500E-01 0.500 F 0.043 -0.299 +18° 27' 40.50" 1.000E-01 0.500 F 0.220 -0.032 19.2 V 0.70 1.46 o 691 0.60 Yes Yes
2009BL2 O C 2013-06-07.39807 1.000E-05 17:21:11.950 1.500E-01 0.500 F 0.043 -0.220 +18° 26' 26.50" 1.000E-01 0.500 F 0.220 0.072 18.0 V 0.70 0.26 o 691 0.46 Yes Yes
2013GU79 O C 2013-06-08.24737 1.000E-05 16:04:32.360 1.500E-01 0.500 F 0.198 -0.591 -11° 43' 32.90" 1.000E-01 0.500 F 0.225 -0.070 20.7 V 0.70 0.23 o 691 1.20 Yes Yes
2013GU79 O C 2013-06-08.26511 1.000E-05 16:04:32.970 1.500E-01 0.500 F 0.198 -0.524 -11° 43' 39.60" 1.000E-01 0.500 F 0.225 -0.210 20.9 V 0.70 0.43 o 691 1.14 Yes Yes
2013GU79 O C 2013-06-08.28285 1.000E-05 16:04:33.590 1.500E-01 0.500 F 0.198 -0.311 -11° 43' 45.10" 1.000E-01 0.500 F 0.225 0.796 20.5 V 0.70 0.03 o 691 1.72 Yes Yes
2013LH16 O C 2013-06-08.30347 1.000E-05 16:31:13.070 1.500E-01 0.500 F 0.134 -1.091 -00° 37' 34.40" 1.000E-01 0.500 F 0.281 0.385 20.1 V 0.70 -0.02 o 691 2.33 Yes Yes
2013LH16 O C 2013-06-08.32121 1.000E-05 16:31:10.720 1.500E-01 0.500 F 0.134 -0.583 -00° 37' 19.70" 1.000E-01 0.500 F 0.281 -0.060 20.3 V 0.70 0.18 o 691 1.18 Yes Yes
2013LH16 O C 2013-06-08.33895 1.000E-05 16:31:08.370 1.500E-01 0.500 F 0.134 -0.090 -00° 37' 04.10" 1.000E-01 0.500 F 0.281 0.394 19.9 V 0.70 -0.22 o 691 0.81 Yes Yes
2013KY1 O C H 2013-06-09.42779 1.000E-05 23:13:01.980 1.500E-01 0.500 F -0.099 -0.202 -03° 08' 23.30" 1.000E-01 0.500 F 0.173 0.165 20.8 V 0.70 0.76 o 691 0.52 Yes Yes
2013KY1 O C H 2013-06-09.43043 1.000E-05 23:13:02.350 1.500E-01 0.500 F -0.099 -0.236 -03° 08' 24.80" 1.000E-01 0.500 F 0.173 0.017 20.6 V 0.70 0.56 o 691 0.48 Yes Yes
2013KY1 O C H 2013-06-09.43308 1.000E-05 23:13:02.740 1.500E-01 0.500 F -0.099 0.010 -03° 08' 26.40" 1.000E-01 0.500 F 0.173 -0.225 20.5 V 0.70 0.46 o 691 0.45 Yes Yes
2013LC7 O C H 2013-06-09.43706 1.000E-05 21:56:26.080 1.500E-01 0.500 F 0.011 0.478 +19° 57' 47.70" 1.000E-01 0.500 F 0.244 -0.096 18.8 V 0.70 0.38 o 691 0.99 Yes Yes
2013LC7 O C H 2013-06-09.43863 1.000E-05 21:56:27.590 1.500E-01 0.500 F 0.011 0.167 +19° 57' 54.50" 1.000E-01 0.500 F 0.244 0.075 18.7 V 0.70 0.28 o 691 0.37 Yes Yes
2013LC7 O C H 2013-06-09.44020 1.000E-05 21:56:29.090 1.500E-01 0.500 F 0.011 -0.289 +19° 58' 01.10" 1.000E-01 0.500 F 0.244 0.047 18.7 V 0.70 0.28 o 691 0.59 Yes Yes
2013LB1 O C H 2013-06-09.45482 1.000E-05 20:46:23.790 1.500E-01 0.500 F 0.009 0.283 +06° 39' 05.30" 1.000E-01 0.500 F 0.272 -0.743 o 691 1.60 Yes No
2013LB1 O C H 2013-06-09.45738 1.000E-05 20:46:23.640 1.500E-01 0.500 F 0.009 0.272 +06° 39' 10.90" 1.000E-01 0.500 F 0.272 -0.467 o 691 1.09 Yes No
2013LB1 O C H 2013-06-09.45994 1.000E-05 20:46:23.510 1.500E-01 0.500 F 0.009 0.560 +06° 39' 16.30" 1.000E-01 0.500 F 0.272 -0.391 o 691 1.38 Yes No
2013JQ22 O C 2013-06-11.17573 1.000E-05 16:37:59.330 1.500E-01 0.500 F 0.108 -0.356 +18° 23' 16.60" 1.000E-01 0.500 F 0.181 -0.240 20.3 V 0.70 -0.04 o 691 0.90 Yes Yes
2013JQ22 O C 2013-06-11.19692 1.000E-05 16:37:57.880 1.500E-01 0.500 F 0.108 0.035 +18° 22' 41.70" 1.000E-01 0.500 F 0.181 0.164 20.4 V 0.70 0.06 o 691 0.35 Yes Yes
2013JQ22 O C 2013-06-11.21463 1.000E-05 16:37:56.650 1.500E-01 0.500 F 0.108 0.206 +18° 22' 12.20" 1.000E-01 0.500 F 0.181 0.229 20.4 V 0.70 0.06 o 691 0.64 Yes Yes
2008OX2 O C 2013-06-11.30345 1.000E-05 16:14:29.800 1.500E-01 0.500 F 0.133 -0.387 -04° 25' 30.40" 1.000E-01 0.500 F 0.148 0.074 20.2 V 0.70 0.96 o 691 0.80 Yes Yes
2008OX2 O C 2013-06-11.32112 1.000E-05 16:14:26.390 1.500E-01 0.500 F 0.133 -0.116 -04° 25' 36.40" 1.000E-01 0.500 F 0.148 0.181 19.1 V 0.70 -0.14 o 691 0.44 Yes Yes
2008OX2 O C 2013-06-11.33877 1.000E-05 16:14:22.990 1.500E-01 0.500 F 0.133 0.083 -04° 25' 42.40" 1.000E-01 0.500 F 0.148 0.263 19.2 V 0.70 -0.04 o 691 0.56 Yes Yes
2012VN82 O C 2013-06-11.44550 1.000E-05 23:18:45.240 1.500E-01 0.500 F -0.007 -0.386 +29° 24' 05.70" 1.000E-01 0.500 F 0.219 0.057 19.9 V 0.70 -0.01 o 691 0.79 Yes Yes
2012VN82 O C 2013-06-11.44728 1.000E-05 23:18:44.670 1.500E-01 0.500 F -0.007 -0.086 +29° 24' 05.60" 1.000E-01 0.500 F 0.219 0.177 19.9 V 0.70 -0.01 o 691 0.41 Yes Yes
2012VN82 O C 2013-06-11.44907 1.000E-05 23:18:44.060 1.500E-01 0.500 F -0.007 -0.262 +29° 24' 05.20" 1.000E-01 0.500 F 0.219 0.000 20.1 V 0.70 0.19 o 691 0.54 Yes Yes
2013LC7 O C H 2013-06-11.45333 1.000E-05 22:36:18.890 1.500E-01 0.500 F -0.067 -0.493 +22° 26' 00.40" 1.000E-01 0.500 F 0.234 -0.044 18.5 V 0.70 0.18 o 691 1.02 Yes Yes
2013LC7 O C H 2013-06-11.45598 1.000E-05 22:36:22.610 1.500E-01 0.500 F -0.067 0.005 +22° 26' 12.40" 1.000E-01 0.500 F 0.234 -0.141 18.6 V 0.70 0.28 o 691 0.29 Yes Yes
2013LB1 O C 2013-06-11.46391 1.000E-05 20:44:28.520 1.500E-01 0.500 F 0.008 -0.140 +07° 47' 53.30" 1.000E-01 0.500 F 0.290 0.070 19.8 V 0.70 0.21 o 691 0.32 Yes Yes
2013LB1 O C 2013-06-11.46650 1.000E-05 20:44:28.360 1.500E-01 0.500 F 0.008 -0.063 +07° 47' 58.50" 1.000E-01 0.500 F 0.290 0.018 19.7 V 0.70 0.11 o 691 0.13 Yes Yes
2013LB1 O C 2013-06-11.46909 1.000E-05 20:44:28.180 1.500E-01 0.500 F 0.008 -0.283 +07° 48' 03.70" 1.000E-01 0.500 F 0.290 -0.032 19.9 V 0.70 0.31 o 691 0.58 Yes Yes
2013LH16 O C 2013-06-12.27913 1.000E-05 16:22:15.120 1.500E-01 0.500 F 0.120 -0.382 +00° 18' 31.20" 1.000E-01 0.500 F 0.279 -0.023 o 691 0.77 Yes No
2013LH16 O C 2013-06-12.29677 1.000E-05 16:22:12.560 1.500E-01 0.500 F 0.120 -0.362 +00° 18' 46.00" 1.000E-01 0.500 F 0.279 0.009 o 691 0.73 Yes No
2013LH16 O C 2013-06-12.31441 1.000E-05 16:22:09.960 1.500E-01 0.500 F 0.120 -0.955 +00° 19' 00.40" 1.000E-01 0.500 F 0.279 -0.356 o 691 2.05 Yes No
2011RR12 O C 2013-06-13.23565 1.000E-05 15:57:17.550 1.500E-01 0.500 F 0.109 -0.521 -08° 20' 12.00" 1.000E-01 0.500 F 0.139 0.179 21.0 V 0.70 -0.39 o 691 1.14 Yes Yes
2011RR12 O C 2013-06-13.25329 1.000E-05 15:57:16.120 1.500E-01 0.500 F 0.109 -0.619 -08° 20' 07.50" 1.000E-01 0.500 F 0.139 -0.578 21.2 V 0.70 -0.19 o 691 1.73 Yes Yes
2011RR12 O C 2013-06-13.27092 1.000E-05 15:57:14.710 1.500E-01 0.500 F 0.109 -0.442 -08° 20' 01.40" 1.000E-01 0.500 F 0.139 0.259 21.1 V 0.70 -0.29 o 691 1.06 Yes Yes
2013LC7 O C H 2013-06-13.43793 1.000E-05 23:31:35.400 1.500E-01 0.500 F -0.053 0.249 +24° 43' 53.80" 1.000E-01 0.500 F 0.194 -0.300 18.4 V 0.70 -0.01 o 691 0.80 Yes Yes
2013LC7 O C H 2013-06-13.43925 1.000E-05 23:31:37.940 1.500E-01 0.500 F -0.053 0.162 +24° 43' 58.90" 1.000E-01 0.500 F 0.194 0.086 18.6 V 0.70 0.19 o 691 0.38 Yes Yes
2013LC7 O C H 2013-06-13.44058 1.000E-05 23:31:40.480 1.500E-01 0.500 F -0.053 -0.192 +24° 44' 03.40" 1.000E-01 0.500 F 0.194 -0.161 18.6 V 0.70 0.19 o 691 0.52 Yes Yes
2010NJ1 O C H 2013-06-13.44928 1.000E-05 21:17:41.310 1.500E-01 0.500 F -0.045 0.262 -00° 10' 17.60" 1.000E-01 0.500 F 0.218 -0.826 o 691 1.74 Yes No
2010NJ1 O C H 2013-06-13.45612 1.000E-05 21:17:40.570 1.500E-01 0.500 F -0.054 0.944 -00° 10' 22.60" 1.000E-01 0.500 F 0.204 -0.950 o 691 2.69 Yes No
Davidaguilar O C 2013-06-14.20144 1.000E-05 16:37:52.250 1.500E-01 0.500 F -0.076 -0.714 +13° 21' 40.20" 1.000E-01 0.500 F 0.155 0.738 19.8 V 0.70 0.23 o 691 2.06 Yes Yes
Davidaguilar O C 2013-06-14.21913 1.000E-05 16:37:51.240 1.500E-01 0.500 F -0.076 0.279 +13° 21' 35.50" 1.000E-01 0.500 F 0.155 -0.119 19.6 V 0.70 0.03 o 691 0.61 Yes Yes
Davidaguilar O C 2013-06-14.23682 1.000E-05 16:37:50.140 1.500E-01 0.500 F -0.076 -0.030 +13° 21' 31.60" 1.000E-01 0.500 F 0.155 -0.161 19.9 V 0.70 0.33 o 691 0.33 Yes Yes
2008KZ5 O C 2013-06-14.31371 1.000E-05 16:27:06.700 1.500E-01 0.500 F 0.143 -0.382 +06° 47' 43.40" 1.000E-01 0.500 F 0.176 0.000 19.8 V 0.70 0.03 o 691 0.77 Yes Yes
2008KZ5 O C 2013-06-14.33480 1.000E-05 16:27:04.600 1.500E-01 0.500 F 0.143 -0.235 +06° 47' 53.90" 1.000E-01 0.500 F 0.176 0.279 19.8 V 0.70 0.03 o 691 0.73 Yes Yes
2008KZ5 O C 2013-06-14.35246 1.000E-05 16:27:02.840 1.500E-01 0.500 F 0.143 -0.241 +06° 48' 02.00" 1.000E-01 0.500 F 0.176 -0.139 19.9 V 0.70 0.13 o 691 0.56 Yes Yes
2013LL31 O C 2013-06-15.19012 1.000E-05 16:38:04.180 1.500E-01 0.500 F 0.055 -0.643 +16° 03' 34.30" 1.000E-01 0.500 F 0.275 0.113 21.4 V 0.70 0.08 o 691 1.32 Yes Yes
2013LL31 O C 2013-06-15.20783 1.000E-05 16:38:02.770 1.500E-01 0.500 F 0.055 -0.539 +16° 03' 39.10" 1.000E-01 0.500 F 0.275 -0.016 21.3 V 0.70 -0.02 o 691 1.10 Yes Yes
2013LL31 O C 2013-06-15.22554 1.000E-05 16:38:01.380 1.500E-01 0.500 F 0.055 -0.095 +16° 03' 43.90" 1.000E-01 0.500 F 0.275 -0.089 20.9 V 0.70 -0.42 o 691 0.27 Yes Yes
2008OX2 O C 2013-06-18.19225 1.000E-05 15:57:50.200 1.500E-01 0.500 F 0.185 -0.572 -05° 08' 30.70" 1.000E-01 0.500 F 0.163 -0.054 19.9 V 0.70 -0.01 o 691 1.16 Yes Yes
2008OX2 O C 2013-06-18.20991 1.000E-05 15:57:48.130 1.500E-01 0.500 F 0.185 -0.127 -05° 08' 37.70" 1.000E-01 0.500 F 0.163 -0.005 19.7 V 0.70 -0.21 o 691 0.26 Yes Yes
2008OX2 O C 2013-06-18.22756 1.000E-05 15:57:46.000 1.500E-01 0.500 F 0.185 -0.601 -05° 08' 44.90" 1.000E-01 0.500 F 0.163 -0.180 19.6 V 0.70 -0.31 o 691 1.27 Yes Yes
2008KZ5 O C 2013-06-18.29211 1.000E-05 16:20:55.630 1.500E-01 0.500 F 0.133 -0.334 +07° 15' 35.50" 1.000E-01 0.500 F 0.106 0.083 19.6 V 0.70 -0.11 o 691 0.69 Yes Yes
2008KZ5 O C 2013-06-18.30977 1.000E-05 16:20:53.820 1.500E-01 0.500 F 0.133 -0.341 +07° 15' 41.20" 1.000E-01 0.500 F 0.106 -0.263 19.7 V 0.70 -0.01 o 691 0.86 Yes Yes
2008KZ5 O C 2013-06-18.32742 1.000E-05 16:20:52.020 1.500E-01 0.500 F 0.133 -0.307 +07° 15' 47.30" 1.000E-01 0.500 F 0.106 -0.163 19.7 V 0.70 -0.01 o 691 0.70 Yes Yes
2012AU10 O C H 2013-06-18.44319 1.000E-05 23:45:05.820 1.500E-01 0.500 F -0.100 -1.001 -13° 02' 17.60" 1.000E-01 0.500 F 0.254 -0.698 21.1 V 0.70 -0.34 o 691 2.45 Yes Yes
2012AU10 O C H 2013-06-18.44592 1.000E-05 23:45:06.270 1.500E-01 0.500 F -0.100 0.355 -13° 02' 19.40" 1.000E-01 0.500 F 0.254 -0.237 21.4 V 0.70 -0.04 o 691 0.86 Yes Yes
2001LE6 O C 2013-06-27.40411 1.000E-05 20:33:38.060 1.500E-01 0.500 F -0.041 -0.160 -19° 50' 29.20" 1.000E-01 0.500 F 0.063 -0.083 19.5 V 0.70 0.19 o 691 0.36 Yes Yes
2001LE6 O C 2013-06-27.42181 1.000E-05 20:33:34.840 1.500E-01 0.500 F -0.041 -0.540 -19° 50' 32.00" 1.000E-01 0.500 F 0.063 -0.002 19.5 V 0.70 0.19 o 691 1.08 Yes Yes
2001LE6 O C 2013-06-27.43950 1.000E-05 20:33:31.670 1.500E-01 0.500 F -0.041 -0.245 -19° 50' 34.90" 1.000E-01 0.500 F 0.063 -0.065 19.7 V 0.70 0.39 o 691 0.51 Yes Yes
2013MS11 O C 2013-07-07.32754 1.000E-05 21:27:55.650 1.500E-01 0.500 F -0.108 -0.124 +02° 56' 42.60" 1.000E-01 0.500 F 0.192 -0.077 21.4 V 0.70 -0.09 o 691 0.30 Yes Yes
2013BC18 O C 2013-07-07.33248 1.000E-05 21:39:48.750 1.500E-01 0.500 F 0.040 -0.556 +03° 43' 10.50" 1.000E-01 0.500 F 0.294 0.442 o 691 1.44 Yes No
2013MS11 O C 2013-07-07.34520 1.000E-05 21:27:53.750 1.500E-01 0.500 F -0.108 -0.005 +02° 57' 07.20" 1.000E-01 0.500 F 0.192 -0.163 21.2 V 0.70 -0.29 o 691 0.34 Yes Yes
2013BC18 O C 2013-07-07.35013 1.000E-05 21:39:46.280 1.500E-01 0.500 F 0.040 -0.234 +03° 43' 18.20" 1.000E-01 0.500 F 0.294 -0.162 o 691 0.59 Yes No
2013MS11 O C 2013-07-07.36285 1.000E-05 21:27:51.800 1.500E-01 0.500 F -0.108 -0.563 +02° 57' 32.10" 1.000E-01 0.500 F 0.192 0.086 21.5 V 0.70 0.01 o 691 1.17 Yes Yes
2013BC18 O C 2013-07-07.36778 1.000E-05 21:39:43.740 1.500E-01 0.500 F 0.040 -0.911 +03° 43' 26.70" 1.000E-01 0.500 F 0.294 0.049 o 691 1.87 Yes No
2006OU10 O C 2013-08-07.36982 1.000E-05 23:41:49.540 1.500E-01 0.500 F -0.125 -0.605 +03° 42' 52.10" 1.000E-01 0.500 F 0.237 0.004 22.0 V 0.70 0.52 o 691 1.21 Yes Yes
2006OU10 O C 2013-08-07.38747 1.000E-05 23:41:48.380 1.500E-01 0.500 F -0.125 -0.582 +03° 43' 00.10" 1.000E-01 0.500 F 0.237 -0.429 21.2 V 0.70 -0.28 o 691 1.45 Yes Yes
2006OU10 O C 2013-08-07.40512 1.000E-05 23:41:47.220 1.500E-01 0.500 F -0.125 -0.536 +03° 43' 08.90" 1.000E-01 0.500 F 0.237 -0.057 21.3 V 0.70 -0.18 o 691 1.08 Yes Yes
1997WU22 O C 2013-08-07.41483 1.000E-05 04:13:41.840 1.500E-01 0.500 F -0.085 -0.340 +31° 21' 33.20" 1.000E-01 0.500 F 0.200 0.097 20.2 V 0.70 0.06 o 691 0.71 Yes Yes
1997WU22 O C 2013-08-07.42763 1.000E-05 04:13:43.060 1.500E-01 0.500 F -0.085 -0.052 +31° 21' 36.40" 1.000E-01 0.500 F 0.200 0.082 20.2 V 0.70 0.06 o 691 0.19 Yes Yes
1997WU22 O C 2013-08-07.44044 1.000E-05 04:13:44.250 1.500E-01 0.500 F -0.085 -0.139 +31° 21' 39.50" 1.000E-01 0.500 F 0.200 -0.030 20.1 V 0.70 -0.04 o 691 0.28 Yes Yes
Pan O C 2013-08-09.45018 1.000E-05 04:23:30.740 1.500E-01 0.500 F -0.046 -0.190 +28° 14' 38.00" 1.000E-01 0.500 F 0.219 -0.347 18.8 V 0.70 1.03 o 691 0.79 Yes Yes
Pan O C 2013-08-09.46287 1.000E-05 04:23:26.640 1.500E-01 0.500 F -0.046 -0.377 +28° 14' 46.80" 1.000E-01 0.500 F 0.219 -0.252 18.8 V 0.70 1.03 o 691 0.91 Yes Yes
Pan O C 2013-08-09.47905 1.000E-05 04:23:21.420 1.500E-01 0.500 F -0.046 -0.342 +28° 14' 58.40" 1.000E-01 0.500 F 0.219 0.327 18.7 V 0.70 0.93 o 691 0.95 Yes Yes
2013PW31 O C 2013-08-12.26598 1.000E-05 22:47:02.800 1.500E-01 0.500 F -0.119 -0.976 -06° 05' 32.20" 1.000E-01 0.500 F 0.249 0.167 21.2 V 0.70 0.42 o 691 2.03 Yes Yes
2013PW31 O C 2013-08-12.28362 1.000E-05 22:47:04.660 1.500E-01 0.500 F -0.119 -0.527 -06° 05' 47.70" 1.000E-01 0.500 F 0.249 0.393 20.8 V 0.70 0.02 o 691 1.35 Yes Yes
2013PW31 O C 2013-08-12.30127 1.000E-05 22:47:06.540 1.500E-01 0.500 F -0.119 0.521 -06° 06' 04.00" 1.000E-01 0.500 F 0.249 -0.229 21.1 V 0.70 0.32 o 691 1.17 Yes Yes
2009YG O C H 2013-08-13.32864 1.000E-05 22:58:42.420 1.500E-01 0.500 F -0.089 -0.418 -08° 09' 11.60" 1.000E-01 0.500 F 0.319 -0.273 20.4 V 0.70 0.29 o 691 1.00 Yes Yes
2009YG O C H 2013-08-13.36393 1.000E-05 22:58:38.050 1.500E-01 0.500 F -0.089 -0.235 -08° 09' 42.80" 1.000E-01 0.500 F 0.319 0.044 20.2 V 0.70 0.09 o 691 0.48 Yes Yes
1997WU22 O C 2013-08-13.43772 1.000E-05 04:22:54.830 1.500E-01 0.500 F -0.061 -0.113 +31° 44' 21.50" 1.000E-01 0.500 F 0.186 -0.274 20.5 V 0.70 0.39 o 691 0.59 Yes Yes
1997WU22 O C 2013-08-13.45052 1.000E-05 04:22:55.940 1.500E-01 0.500 F -0.061 -0.380 +31° 44' 24.50" 1.000E-01 0.500 F 0.186 -0.130 20.7 V 0.70 0.59 o 691 0.80 Yes Yes
1997WU22 O C 2013-08-13.46331 1.000E-05 04:22:57.100 1.500E-01 0.500 F -0.061 0.022 +31° 44' 27.70" 1.000E-01 0.500 F 0.186 0.223 20.8 V 0.70 0.69 o 691 0.45 Yes Yes
Anteros O C 2013-09-03.46443 1.000E-05 06:21:34.260 1.500E-01 0.500 F -0.017 -0.684 +23° 45' 28.80" 1.000E-01 0.500 F 0.212 -0.103 19.7 V 0.70 0.06 o 691 1.38 Yes Yes
Anteros O C 2013-09-03.47710 1.000E-05 06:21:35.890 1.500E-01 0.500 F -0.017 -1.033 +23° 45' 25.60" 1.000E-01 0.500 F 0.212 -0.314 20.7 V 0.70 1.06 o 691 2.16 Yes Yes
Anteros O C 2013-09-03.48977 1.000E-05 06:21:37.600 1.500E-01 0.500 F -0.017 -0.265 +23° 45' 22.70" 1.000E-01 0.500 F 0.212 -0.218 19.8 V 0.70 0.16 o 691 0.69 Yes Yes
2000WK63 O C H 2013-09-05.29239 1.000E-05 00:52:10.310 1.500E-01 0.500 F -0.228 0.193 +00° 13' 56.10" 1.000E-01 0.500 F 0.212 0.209 21.3 V 0.70 -0.37 o 691 0.57 Yes Yes
2000WK63 O C H 2013-09-05.31077 1.000E-05 00:52:09.310 1.500E-01 0.500 F -0.228 -0.835 +00° 13' 48.10" 1.000E-01 0.500 F 0.212 0.133 21.5 V 0.70 -0.17 o 691 1.69 Yes Yes
2003RM O C 2013-09-05.32505 1.000E-05 00:48:14.110 1.500E-01 0.500 F -0.162 -1.535 +16° 06' 35.70" 1.000E-01 0.500 F 0.386 -0.948 19.5 V 0.70 0.01 o 691 3.51 No Yes
2003RM O C 2013-09-05.34350 1.000E-05 00:48:12.480 1.500E-01 0.500 F -0.162 -1.489 +16° 06' 57.40" 1.000E-01 0.500 F 0.386 -0.858 19.4 V 0.70 -0.09 o 691 3.34 No Yes
2003RM O C 2013-09-05.36171 1.000E-05 00:48:10.860 1.500E-01 0.500 F -0.162 -1.529 +16° 07' 18.60" 1.000E-01 0.500 F 0.386 -0.900 19.3 V 0.70 -0.19 o 691 3.45 No Yes
2005JE46 O C H 2013-09-05.44914 1.000E-05 06:57:43.980 1.500E-01 0.500 F -0.117 0.055 +29° 56' 21.00" 1.000E-01 0.500 F 0.230 -0.141 20.2 V 0.70 0.85 o 691 0.30 Yes Yes
2005JE46 O C H 2013-09-05.44914 1.000E-05 06:57:43.980 1.500E-01 0.500 F -0.117 0.055 +29° 56' 21.00" 1.000E-01 0.500 F 0.230 -0.141 20.2 V 0.70 0.85 o 691 0.30 Yes Yes
2005JE46 O C H 2013-09-05.46232 1.000E-05 06:57:46.300 1.500E-01 0.500 F -0.117 -0.002 +29° 56' 04.90" 1.000E-01 0.500 F 0.230 -0.211 20.4 V 0.70 1.05 o 691 0.42 Yes Yes
2005JE46 O C H 2013-09-05.46232 1.000E-05 06:57:46.300 1.500E-01 0.500 F -0.117 -0.002 +29° 56' 04.90" 1.000E-01 0.500 F 0.230 -0.211 20.4 V 0.70 1.05 o 691 0.42 Yes Yes
2005JE46 O C H 2013-09-05.47524 1.000E-05 06:57:48.550 1.500E-01 0.500 F -0.117 -0.295 +29° 55' 48.90" 1.000E-01 0.500 F 0.230 -0.482 20.5 V 0.70 1.15 o 691 1.13 Yes Yes
2005JE46 O C H 2013-09-05.47524 1.000E-05 06:57:48.550 1.500E-01 0.500 F -0.117 -0.295 +29° 55' 48.90" 1.000E-01 0.500 F 0.230 -0.482 20.5 V 0.70 1.15 o 691 1.13 Yes Yes
1999SK10 O C 2013-09-06.29818 1.000E-05 00:59:25.520 1.500E-01 0.500 F -0.183 -0.179 +12° 09' 31.20" 1.000E-01 0.500 F 0.299 -0.080 21.3 V 0.70 0.18 o 691 0.39 Yes Yes
1999SK10 O C 2013-09-06.31587 1.000E-05 00:59:25.370 1.500E-01 0.500 F -0.183 0.141 +12° 09' 27.20" 1.000E-01 0.500 F 0.299 -0.120 21.4 V 0.70 0.28 o 691 0.37 Yes Yes
1999SK10 O C 2013-09-06.33356 1.000E-05 00:59:25.200 1.500E-01 0.500 F -0.183 0.237 +12° 09' 23.10" 1.000E-01 0.500 F 0.299 -0.229 21.4 V 0.70 0.28 o 691 0.66 Yes Yes
1998QB28 O C H 2013-09-06.35138 1.000E-05 01:19:08.450 1.500E-01 0.500 F -0.213 0.530 +09° 09' 10.90" 1.000E-01 0.500 F 0.234 -0.235 o 691 1.17 Yes No
1998QB28 O C H 2013-09-06.36902 1.000E-05 01:19:07.500 1.500E-01 0.500 F -0.213 -0.050 +09° 09' 06.80" 1.000E-01 0.500 F 0.234 -0.842 o 691 1.70 Yes No
1998QB28 O C H 2013-09-06.39015 1.000E-05 01:19:06.390 1.500E-01 0.500 F -0.213 -0.281 +09° 09' 02.70" 1.000E-01 0.500 F 0.234 -0.726 o 691 1.57 Yes No
1997AP10 O C H 2013-09-06.42033 1.000E-05 06:48:32.900 1.500E-01 0.500 F -0.008 -0.183 +27° 20' 56.20" 1.000E-01 0.500 F 0.125 0.238 20.9 V 0.70 0.25 o 691 0.60 Yes Yes
2001TN41 O C H 2013-09-06.42280 1.000E-05 06:55:30.260 1.500E-01 0.500 F -0.108 0.075 +28° 18' 59.10" 1.000E-01 0.500 F 0.191 0.085 20.8 V 0.70 0.43 o 691 0.23 Yes Yes
1997AP10 O C H 2013-09-06.43300 1.000E-05 06:48:34.100 1.500E-01 0.500 F -0.008 -0.288 +27° 20' 54.60" 1.000E-01 0.500 F 0.125 -0.348 21.2 V 0.70 0.55 o 691 0.90 Yes Yes
2001TN41 O C H 2013-09-06.43547 1.000E-05 06:55:32.310 1.500E-01 0.500 F -0.108 0.060 +28° 19' 03.00" 1.000E-01 0.500 F 0.191 -0.851 o 691 1.71 Yes No
1997AP10 O C H 2013-09-06.44567 1.000E-05 06:48:35.350 1.500E-01 0.500 F -0.008 0.302 +27° 20' 53.60" 1.000E-01 0.500 F 0.125 -0.330 21.5 V 0.70 0.85 o 691 0.89 Yes Yes
2001TN41 O C H 2013-09-06.44814 1.000E-05 06:55:34.320 1.500E-01 0.500 F -0.108 -0.462 +28° 19' 08.10" 1.000E-01 0.500 F 0.191 -0.582 20.8 V 0.70 0.43 o 691 1.49 Yes Yes
2017UW42 O C 2013-09-13.32210 1.000E-05 00:33:22.400 1.500E-01 0.500 F -0.179 -0.118 +15° 08' 34.50" 1.000E-01 0.500 F 0.243 0.324 21.3 V 0.70 -0.09 o 691 0.71 Yes Yes
2017UW42 O C 2013-09-13.33981 1.000E-05 00:33:21.400 1.500E-01 0.500 F -0.179 -0.453 +15° 08' 32.60" 1.000E-01 0.500 F 0.243 0.300 20.9 V 0.70 -0.49 o 691 1.14 Yes Yes
2017UW42 O C 2013-09-13.35753 1.000E-05 00:33:20.450 1.500E-01 0.500 F -0.179 -0.044 +15° 08' 30.40" 1.000E-01 0.500 F 0.243 -0.002 21.0 V 0.70 -0.39 o 691 0.09 Yes Yes
2016NW22 O C 2013-09-13.37967 1.000E-05 01:08:38.520 1.500E-01 0.500 F -0.235 -0.279 +14° 34' 59.20" 1.000E-01 0.500 F 0.361 -0.068 20.7 V 0.70 -0.33 o 691 0.58 Yes Yes
2016NW22 O C 2013-09-13.39738 1.000E-05 01:08:38.170 1.500E-01 0.500 F -0.235 -0.430 +14° 34' 45.10" 1.000E-01 0.500 F 0.361 -0.058 20.7 V 0.70 -0.33 o 691 0.88 Yes Yes
2016NW22 O C 2013-09-13.41509 1.000E-05 01:08:37.850 1.500E-01 0.500 F -0.235 -0.160 +14° 34' 30.80" 1.000E-01 0.500 F 0.361 -0.187 20.5 V 0.70 -0.53 o 691 0.50 Yes Yes
2013RE21 O C H 2013-09-13.48864 1.000E-05 02:47:41.310 1.500E-01 0.500 F -0.190 0.184 +33° 39' 02.10" 1.000E-01 0.500 F 0.190 0.356 21.0 V 0.70 0.67 o 691 0.81 Yes Yes
2013RE21 O C H 2013-09-13.49243 1.000E-05 02:47:41.630 1.500E-01 0.500 F -0.190 -0.353 +33° 39' 05.20" 1.000E-01 0.500 F 0.190 0.222 20.7 V 0.70 0.37 o 691 0.85 Yes Yes
2013RE21 O C H 2013-09-13.49622 1.000E-05 02:47:41.980 1.500E-01 0.500 F -0.190 -0.518 +33° 39' 08.00" 1.000E-01 0.500 F 0.190 -0.208 20.8 V 0.70 0.47 o 691 1.14 Yes Yes
1999SK10 O C 2013-09-14.33794 1.000E-05 00:57:19.730 1.500E-01 0.500 F -0.200 -0.197 +11° 23' 54.50" 1.000E-01 0.500 F 0.288 -0.026 20.8 V 0.70 0.14 o 691 0.39 Yes Yes
1999SK10 O C 2013-09-14.35566 1.000E-05 00:57:19.170 1.500E-01 0.500 F -0.200 -0.488 +11° 23' 46.50" 1.000E-01 0.500 F 0.288 0.047 20.8 V 0.70 0.15 o 691 0.98 Yes Yes
1999SK10 O C 2013-09-14.37337 1.000E-05 00:57:18.680 1.500E-01 0.500 F -0.200 0.269 +11° 23' 38.40" 1.000E-01 0.500 F 0.288 0.054 20.8 V 0.70 0.15 o 691 0.55 Yes Yes
2013PU13 O C 2013-09-15.23755 1.000E-05 00:28:15.320 1.500E-01 0.500 F -0.186 -0.292 -01° 09' 00.60" 1.000E-01 0.500 F 0.320 -0.441 19.7 V 0.70 0.21 o 691 1.07 Yes Yes
2013PU13 O C 2013-09-15.25520 1.000E-05 00:28:16.150 1.500E-01 0.500 F -0.186 0.003 -01° 09' 10.50" 1.000E-01 0.500 F 0.320 -0.044 19.9 V 0.70 0.41 o 691 0.09 Yes Yes
2013PU13 O C 2013-09-15.27285 1.000E-05 00:28:16.920 1.500E-01 0.500 F -0.186 -0.398 -01° 09' 21.00" 1.000E-01 0.500 F 0.320 -0.255 19.9 V 0.70 0.41 o 691 0.95 Yes Yes
1998QB28 O C H 2013-09-15.37911 1.000E-05 01:10:29.030 1.500E-01 0.500 F -0.143 -1.075 +08° 29' 05.80" 1.000E-01 0.500 F 0.352 0.178 21.6 V 0.70 0.06 o 691 2.20 Yes Yes
1998QB28 O C H 2013-09-15.39677 1.000E-05 01:10:27.850 1.500E-01 0.500 F -0.143 -0.162 +08° 28' 59.90" 1.000E-01 0.500 F 0.352 0.055 21.6 V 0.70 0.06 o 691 0.35 Yes Yes
2006VV2 O C 2013-09-15.41330 1.000E-05 01:10:08.780 1.500E-01 0.500 F -0.143 -0.342 +07° 50' 43.90" 1.000E-01 0.500 F 0.352 0.215 20.9 V 0.70 -0.36 o 691 0.81 Yes Yes
2006VV2 O C 2013-09-15.43095 1.000E-05 01:10:07.710 1.500E-01 0.500 F -0.143 -0.319 +07° 50' 42.70" 1.000E-01 0.500 F 0.352 -0.198 20.8 V 0.70 -0.46 o 691 0.75 Yes Yes
2006VV2 O C 2013-09-15.44860 1.000E-05 01:10:06.630 1.500E-01 0.500 F -0.143 -0.454 +07° 50' 42.00" 1.000E-01 0.500 F 0.352 -0.105 21.1 V 0.70 -0.16 o 691 0.93 Yes Yes
2013PA7 O C H 2013-09-23.17908 1.000E-05 20:35:47.680 1.500E-01 0.500 F -0.046 0.132 -14° 42' 28.90" 1.000E-01 0.500 F 0.210 0.091 o 691 0.32 Yes No
2013PA7 O C H 2013-09-23.18511 1.000E-05 20:35:47.630 1.500E-01 0.500 F -0.046 0.103 -14° 42' 23.20" 1.000E-01 0.500 F 0.210 -0.228 21.7 V 0.70 0.71 o 691 0.50 Yes Yes
2013PA7 O C H 2013-09-23.19115 1.000E-05 20:35:47.600 1.500E-01 0.500 F -0.046 0.354 -14° 42' 17.10" 1.000E-01 0.500 F 0.210 -0.171 o 691 0.79 Yes No
McAuliffe O C 2013-09-23.19830 1.000E-05 21:33:43.900 1.500E-01 0.500 F -0.311 -0.517 -20° 20' 34.40" 1.000E-01 0.500 F 0.111 0.014 19.6 V 0.70 0.13 o 691 1.03 Yes Yes
2013QH48 O C H 2013-09-23.19830 1.000E-05 21:31:01.350 1.500E-01 0.500 F -0.201 -0.474 -20° 16' 04.00" 1.000E-01 0.500 F 0.086 0.285 20.9 V 0.70 0.21 o 691 1.11 Yes Yes
McAuliffe O C 2013-09-23.20352 1.000E-05 21:33:43.690 1.500E-01 0.500 F -0.311 -0.141 -20° 20' 35.30" 1.000E-01 0.500 F 0.111 -0.006 19.6 V 0.70 0.13 o 691 0.28 Yes Yes
2013QH48 O C H 2013-09-23.20352 1.000E-05 21:31:01.120 1.500E-01 0.500 F -0.201 -0.247 -20° 16' 07.90" 1.000E-01 0.500 F 0.086 -0.829 21.0 V 0.70 0.31 o 691 1.73 Yes Yes
McAuliffe O C 2013-09-23.20875 1.000E-05 21:33:43.490 1.500E-01 0.500 F -0.311 0.380 -20° 20' 36.10" 1.000E-01 0.500 F 0.111 0.073 19.6 V 0.70 0.13 o 691 0.78 Yes Yes
2013QH48 O C H 2013-09-23.20875 1.000E-05 21:31:00.850 1.500E-01 0.500 F -0.201 -0.577 -20° 16' 09.70" 1.000E-01 0.500 F 0.086 0.158 o 691 1.20 Yes No
2013QH11 O C H 2013-09-23.22029 1.000E-05 21:47:25.270 1.500E-01 0.500 F 0.024 0.294 -06° 14' 44.20" 1.000E-01 0.500 F 0.283 -0.501 20.9 V 0.70 -0.11 o 691 1.18 Yes Yes
2013QH11 O C H 2013-09-23.22511 1.000E-05 21:47:25.220 1.500E-01 0.500 F 0.024 0.625 -06° 14' 49.90" 1.000E-01 0.500 F 0.283 -0.398 21.2 V 0.70 0.19 o 691 1.50 Yes Yes
2013QH11 O C H 2013-09-23.22992 1.000E-05 21:47:25.150 1.500E-01 0.500 F 0.024 0.654 -06° 14' 56.40" 1.000E-01 0.500 F 0.283 -1.109 21.0 V 0.70 -0.01 o 691 2.62 Yes Yes
2013RX73 O C 2013-09-23.32973 1.000E-05 23:34:40.070 1.500E-01 0.500 F -0.192 -0.849 -11° 37' 06.80" 1.000E-01 0.500 F 0.197 0.259 19.9 V 0.70 -0.41 o 691 1.85 Yes Yes
2013RX73 O C 2013-09-23.33267 1.000E-05 23:34:40.690 1.500E-01 0.500 F -0.192 -0.251 -11° 37' 14.20" 1.000E-01 0.500 F 0.197 -0.154 19.9 V 0.70 -0.41 o 691 0.61 Yes Yes
2013RX73 O C 2013-09-23.33561 1.000E-05 23:34:41.320 1.500E-01 0.500 F -0.192 0.483 -11° 37' 21.40" 1.000E-01 0.500 F 0.197 -0.373 19.9 V 0.70 -0.41 o 691 1.27 Yes Yes
2013RJ36 O C H 2013-09-23.37774 1.000E-05 00:41:31.210 1.500E-01 0.500 F -0.194 -0.220 +03° 34' 41.60" 1.000E-01 0.500 F 0.109 -0.316 o 691 0.79 Yes No
2013RJ36 O C H 2013-09-23.38185 1.000E-05 00:41:31.070 1.500E-01 0.500 F -0.194 0.425 +03° 34' 46.20" 1.000E-01 0.500 F 0.109 -0.362 o 691 1.16 Yes No
2013PH3 O C t 2013-09-23.43581 1.000E-05 01:40:32.050 1.500E-01 0.500 F -0.185 0.236 -15° 36' 23.90" 1.000E-01 0.500 F 0.242 -0.257 20.6 V 0.70 0.47 o 691 0.75 Yes Yes
2013PH3 O C t 2013-09-23.43895 1.000E-05 01:40:32.960 1.500E-01 0.500 F -0.185 0.281 -15° 36' 13.30" 1.000E-01 0.500 F 0.242 0.203 20.6 V 0.70 0.47 o 691 0.75 Yes Yes
2013PH3 O C t 2013-09-23.44209 1.000E-05 01:40:33.830 1.500E-01 0.500 F -0.185 -0.261 -15° 36' 03.70" 1.000E-01 0.500 F 0.242 -0.342 21.0 V 0.70 0.87 o 691 0.93 Yes Yes
2013QK48 O C H 2013-09-24.25366 1.000E-05 22:47:49.130 1.500E-01 0.500 F -0.237 0.656 -23° 09' 09.10" 1.000E-01 0.500 F 0.292 -0.847 o 691 2.15 Yes No
2013QK48 O C H 2013-09-24.25778 1.000E-05 22:47:48.730 1.500E-01 0.500 F -0.237 0.797 -23° 09' 10.50" 1.000E-01 0.500 F 0.292 -0.501 o 691 1.89 Yes No
2013QK48 O C H 2013-09-24.26189 1.000E-05 22:47:48.240 1.500E-01 0.500 F -0.237 -0.318 -23° 09' 12.10" 1.000E-01 0.500 F 0.292 -0.362 o 691 0.96 Yes No
2013RJ74 O C 2013-09-24.31377 1.000E-05 23:22:40.010 1.500E-01 0.500 F -0.076 -0.274 +03° 21' 57.70" 1.000E-01 0.500 F 0.224 -0.205 21.3 V 0.70 0.74 o 691 0.69 Yes Yes
2013RJ74 O C 2013-09-24.31695 1.000E-05 23:22:39.560 1.500E-01 0.500 F -0.076 -0.299 +03° 21' 58.60" 1.000E-01 0.500 F 0.224 0.192 21.2 V 0.70 0.64 o 691 0.72 Yes Yes
2013RJ74 O C 2013-09-24.32014 1.000E-05 23:22:39.090 1.500E-01 0.500 F -0.076 -0.603 +03° 21' 58.70" 1.000E-01 0.500 F 0.224 -0.212 21.2 V 0.70 0.64 o 691 1.29 Yes Yes
2013RD32 O C H 2013-09-24.37942 1.000E-05 00:07:44.590 1.500E-01 0.500 F -0.185 0.387 -03° 22' 41.60" 1.000E-01 0.500 F 0.235 -1.132 o 691 2.43 Yes No
2013RD32 O C H 2013-09-24.38354 1.000E-05 00:07:44.290 1.500E-01 0.500 F -0.185 -0.376 -03° 22' 43.40" 1.000E-01 0.500 F 0.235 -0.011 21.2 V 0.70 0.18 o 691 0.76 Yes Yes
2013RD32 O C H 2013-09-24.38765 1.000E-05 00:07:44.110 1.500E-01 0.500 F -0.185 0.647 -03° 22' 46.60" 1.000E-01 0.500 F 0.235 -0.298 o 691 1.44 Yes No
2013SA20 O C H 2013-09-24.39309 1.000E-05 00:04:45.560 1.500E-01 0.500 F -0.212 1.021 +03° 28' 01.50" 1.000E-01 0.500 F 0.284 0.146 21.2 V 0.70 0.31 o 691 2.08 Yes Yes
2013SA20 O C H 2013-09-24.39651 1.000E-05 00:04:44.920 1.500E-01 0.500 F -0.212 0.288 +03° 27' 58.70" 1.000E-01 0.500 F 0.284 -0.639 o 691 1.41 Yes No
2013SA20 O C H 2013-09-24.39993 1.000E-05 00:04:44.400 1.500E-01 0.500 F -0.212 1.349 +03° 27' 57.90" 1.000E-01 0.500 F 0.284 0.578 20.8 V 0.70 -0.09 o 691 2.96 Yes Yes
2013RJ36 O C H 2013-09-24.43624 1.000E-05 00:40:53.530 1.500E-01 0.500 F -0.181 0.597 +03° 54' 43.60" 1.000E-01 0.500 F 0.083 -0.076 21.0 V 0.70 0.40 o 691 1.24 Yes Yes
2013RJ36 O C H 2013-09-24.43976 1.000E-05 00:40:53.300 1.500E-01 0.500 F -0.181 -0.507 +03° 54' 47.70" 1.000E-01 0.500 F 0.083 0.044 21.0 V 0.70 0.40 o 691 1.05 Yes Yes
2013RJ36 O C H 2013-09-24.44328 1.000E-05 00:40:53.230 1.500E-01 0.500 F -0.181 0.775 +03° 54' 51.20" 1.000E-01 0.500 F 0.083 -0.435 o 691 1.84 Yes No
2013RJ43 O C t 2013-09-24.44854 1.000E-05 00:43:21.780 1.500E-01 0.500 F -0.301 0.079 -02° 03' 05.60" 1.000E-01 0.500 F 0.213 -0.801 20.5 V 0.70 -0.03 o 691 1.79 Yes Yes
2013RJ43 O C t 2013-09-24.45127 1.000E-05 00:43:21.930 1.500E-01 0.500 F -0.301 0.342 -02° 03' 10.50" 1.000E-01 0.500 F 0.213 -0.333 20.8 V 0.70 0.27 o 691 1.07 Yes Yes
2013RJ43 O C t 2013-09-24.45399 1.000E-05 00:43:22.040 1.500E-01 0.500 F -0.301 0.008 -02° 03' 15.70" 1.000E-01 0.500 F 0.213 -0.186 21.1 V 0.70 0.57 o 691 0.42 Yes Yes
2013SV19 O C 2013-09-24.46079 1.000E-05 00:26:17.410 1.500E-01 0.500 F -0.156 -0.494 +04° 00' 25.70" 1.000E-01 0.500 F 0.239 -0.446 21.0 V 0.70 0.52 o 691 1.36 Yes Yes
2013SV19 O C 2013-09-24.46532 1.000E-05 00:26:17.680 1.500E-01 0.500 F -0.156 0.087 +04° 00' 28.60" 1.000E-01 0.500 F 0.239 -0.297 20.6 V 0.70 0.12 o 691 0.63 Yes Yes
2013SV19 O C 2013-09-24.46985 1.000E-05 00:26:17.910 1.500E-01 0.500 F -0.156 0.053 +04° 00' 31.60" 1.000E-01 0.500 F 0.239 -0.046 21.1 V 0.70 0.62 o 691 0.14 Yes Yes
2013RN21 O C H 2013-09-24.47477 1.000E-05 01:29:33.420 1.500E-01 0.500 F -0.249 0.925 +00° 43' 18.90" 1.000E-01 0.500 F 0.215 -0.418 o 691 2.20 Yes No

[1-200] [201-400] [401-600] [601-800] [801-1000] [1001-1200] [1201-1400] [1401-1600] [1601-1800] [1801-2000] [2001-2200] [2201-2400] [2401-2600] [2601-2800] [2801-3000] [3001-3200] [3201-3400] [3401-3600] [3601-3800] [3801-4000] [4001-4200] [4201-4400] [4401-4600] [4601-4800] [4801-5000] [5001-5200] [5201-5400] [5401-5600] [5601-5800] [5801-6000] [6001-6200] [6201-6400] [6401-6600] [6601-6800] [6801-7000] [7001-7200] [7201-7400] [7401-7600] [7601-7800] [7801-8000] [8001-8200] [8201-8400] [8401-8600] [8601-8800] [8801-9000] [9001-9200] [9201-9400] [9401-9600] [9601-9800] [9801-10000] [10001-10200] [10201-10400] [10401-10600] [10601-10800] [10801-11000] [11001-11200] [11201-11400] [11401-11600] [11601-11800] [11801-12000] [12001-12200] [12201-12400] [12401-12600] [12601-12800] [12801-13000] [13001-13200] [13201-13400] [13401-13600] [13601-13800] [13801-14000] [14001-14200] [14201-14400] [14401-14600] [14601-14800] [14801-15000] [15001-15200] [15201-15400] [15401-15600] [15601-15800] [15801-16000] [16001-16200] [16201-16400] [16401-16600] [16601-16800] [16801-17000] [17001-17200] [17201-17400] [17401-17600] [17601-17800] [17801-18000] [18001-18200] [18201-18400] [18401-18600] [18601-18800] [18801-19000] [19001-19200] [19201-19400] [19401-19600] [19601-19800] [19801-20000] [20001-20200] [20201-20400] [20401-20600] [20601-20800] [20801-21000] [21001-21200] [21201-21400] [21401-21600] [21601-21800] [21801-22000] [22001-22200] [22201-22400] [22401-22600] [22601-22800] [22801-23000] [23001-23200] [23201-23400] [23401-23600] [23601-23800] [23801-24000] [24001-24200] [24201-24400] [24401-24600] [24601-24800] [24801-25000] [25001-25200] [25201-25400] [25401-25600] [25601-25800] [25801-26000] [26001-26200] [26201-26400] [26401-26600] [26601-26800] [26801-27000] [27001-27200] [27201-27400] [27401-27600] [27601-27800] [27801-28000] [28001-28200] [28201-28400] [28401-28600] [28601-28800] [28801-29000] [29001-29200] [29201-29400] [29401-29600] [29601-29800] [29801-30000] [30001-30200] [30201-30400] [30401-30600] [30601-30800] [30801-31000] [31001-31200] [31201-31400] [31401-31600] [31601-31800] [31801-32000] [32001-32200] [32201-32400] [32401-32600] [32601-32800] [32801-33000] [33001-33200] [33201-33400] [33401-33600] [33601-33800] [33801-34000] [34001-34200] [34201-34400] [34401-34600] [34601-34800] [34801-35000] [35001-35200] [35201-35400] [35401-35600] [35601-35800] [35801-36000] [36001-36200] [36201-36400] [36401-36600] [36601-36800] [36801-37000] [37001-37200] [37201-37400] [37401-37600] [37601-37800] [37801-38000] [38001-38200] [38201-38400] [38401-38600] [38601-38800] [38801-39000] [39001-39200] [39201-39400] [39401-39600] [39601-39800] [39801-40000] [40001-40200] [40201-40400] [40401-40600] [40601-40800] [40801-41000] [41001-41200] [41201-41400] [41401-41600] [41601-41800] [41801-42000] [42001-42200] [42201-42400] [42401-42600] [42601-42800] [42801-43000] [43001-43200] [43201-43400] [43401-43600] [43601-43800] [43801-44000] [44001-44200] [44201-44400] [44401-44600] [44601-44800] [44801-45000] [45001-45200] [45201-45400] [45401-45600] [45601-45800] [45801-46000] [46001-46200] [46201-46400] [46401-46600] [46601-46800] [46801-47000] [47001-47200] [47201-47400] [47401-47600] [47601-47800] [47801-48000] [48001-48200] [48201-48400] [48401-48600] [48601-48800] [48801-49000] [49001-49200] [49201-49400] [49401-49600] [49601-49800] [49801-50000] [50001-50200] [50201-50388]